sensor_id;sensor_type;location;lat;lon;timestamp;P1;durP1;ratioP1;P2;durP2;ratioP2
57107;SDS011;42987;52.916;6.542;2023-05-29T00:01:25;14.60;;;3.70;;
57107;SDS011;42987;52.916;6.542;2023-05-29T00:03:51;16.77;;;4.07;;
57107;SDS011;42987;52.916;6.542;2023-05-29T00:06:17;17.65;;;4.05;;
57107;SDS011;42987;52.916;6.542;2023-05-29T00:08:44;14.77;;;3.78;;
57107;SDS011;42987;52.916;6.542;2023-05-29T00:11:13;16.70;;;4.28;;
57107;SDS011;42987;52.916;6.542;2023-05-29T00:13:39;17.35;;;3.92;;
57107;SDS011;42987;52.916;6.542;2023-05-29T00:16:05;19.08;;;4.22;;
57107;SDS011;42987;52.916;6.542;2023-05-29T00:18:31;15.68;;;3.83;;
57107;SDS011;42987;52.916;6.542;2023-05-29T00:20:57;17.45;;;3.92;;
57107;SDS011;42987;52.916;6.542;2023-05-29T00:23:23;14.77;;;4.18;;
57107;SDS011;42987;52.916;6.542;2023-05-29T00:25:49;14.98;;;3.72;;
57107;SDS011;42987;52.916;6.542;2023-05-29T00:28:15;19.45;;;4.55;;
57107;SDS011;42987;52.916;6.542;2023-05-29T00:30:40;15.93;;;4.28;;
57107;SDS011;42987;52.916;6.542;2023-05-29T00:33:06;15.98;;;4.18;;
57107;SDS011;42987;52.916;6.542;2023-05-29T00:35:33;19.45;;;5.15;;
57107;SDS011;42987;52.916;6.542;2023-05-29T00:37:59;18.08;;;4.43;;
57107;SDS011;42987;52.916;6.542;2023-05-29T00:40:25;14.90;;;3.42;;
57107;SDS011;42987;52.916;6.542;2023-05-29T00:42:51;16.08;;;4.03;;
57107;SDS011;42987;52.916;6.542;2023-05-29T00:45:17;16.38;;;3.67;;
57107;SDS011;42987;52.916;6.542;2023-05-29T00:47:43;14.45;;;3.75;;
57107;SDS011;42987;52.916;6.542;2023-05-29T00:50:10;15.55;;;3.28;;
57107;SDS011;42987;52.916;6.542;2023-05-29T00:52:39;16.10;;;4.07;;
57107;SDS011;42987;52.916;6.542;2023-05-29T00:55:06;15.82;;;3.83;;
57107;SDS011;42987;52.916;6.542;2023-05-29T00:57:34;16.65;;;3.88;;
57107;SDS011;42987;52.916;6.542;2023-05-29T01:00:02;15.50;;;3.80;;
57107;SDS011;42987;52.916;6.542;2023-05-29T01:02:30;18.20;;;3.88;;
57107;SDS011;42987;52.916;6.542;2023-05-29T01:04:56;17.42;;;3.95;;
57107;SDS011;42987;52.916;6.542;2023-05-29T01:07:22;12.23;;;3.40;;
57107;SDS011;42987;52.916;6.542;2023-05-29T01:09:48;15.10;;;3.90;;
57107;SDS011;42987;52.916;6.542;2023-05-29T01:12:32;17.42;;;4.25;;
57107;SDS011;42987;52.916;6.542;2023-05-29T01:20:18;12.70;;;3.17;;
57107;SDS011;42987;52.916;6.542;2023-05-29T01:28:25;15.52;;;3.60;;
57107;SDS011;42987;52.916;6.542;2023-05-29T01:30:57;15.65;;;3.40;;
57107;SDS011;42987;52.916;6.542;2023-05-29T01:33:26;13.77;;;3.80;;
57107;SDS011;42987;52.916;6.542;2023-05-29T01:35:52;15.35;;;3.50;;
57107;SDS011;42987;52.916;6.542;2023-05-29T01:38:18;13.27;;;3.28;;
57107;SDS011;42987;52.916;6.542;2023-05-29T01:40:44;14.30;;;3.47;;
57107;SDS011;42987;52.916;6.542;2023-05-29T01:43:13;13.43;;;3.50;;
57107;SDS011;42987;52.916;6.542;2023-05-29T01:45:40;12.90;;;3.17;;
57107;SDS011;42987;52.916;6.542;2023-05-29T01:48:06;16.50;;;3.40;;
57107;SDS011;42987;52.916;6.542;2023-05-29T01:50:32;17.70;;;3.70;;
57107;SDS011;42987;52.916;6.542;2023-05-29T01:53:02;15.15;;;3.47;;
57107;SDS011;42987;52.916;6.542;2023-05-29T01:55:28;15.73;;;4.20;;
57107;SDS011;42987;52.916;6.542;2023-05-29T01:57:54;14.32;;;3.85;;
57107;SDS011;42987;52.916;6.542;2023-05-29T02:00:20;13.57;;;3.75;;
57107;SDS011;42987;52.916;6.542;2023-05-29T02:02:46;13.02;;;3.72;;
57107;SDS011;42987;52.916;6.542;2023-05-29T02:05:12;14.18;;;3.67;;
57107;SDS011;42987;52.916;6.542;2023-05-29T02:07:41;15.23;;;3.25;;
57107;SDS011;42987;52.916;6.542;2023-05-29T02:10:07;16.08;;;4.18;;
57107;SDS011;42987;52.916;6.542;2023-05-29T02:12:33;14.30;;;3.70;;
57107;SDS011;42987;52.916;6.542;2023-05-29T02:15:05;14.93;;;3.55;;
57107;SDS011;42987;52.916;6.542;2023-05-29T02:17:31;15.95;;;3.88;;
57107;SDS011;42987;52.916;6.542;2023-05-29T02:19:57;13.18;;;3.95;;
57107;SDS011;42987;52.916;6.542;2023-05-29T02:22:22;13.95;;;3.42;;
57107;SDS011;42987;52.916;6.542;2023-05-29T02:24:48;15.60;;;4.22;;
57107;SDS011;42987;52.916;6.542;2023-05-29T02:27:14;14.95;;;3.75;;
57107;SDS011;42987;52.916;6.542;2023-05-29T02:29:40;14.27;;;4.13;;
57107;SDS011;42987;52.916;6.542;2023-05-29T02:32:06;15.40;;;3.65;;
57107;SDS011;42987;52.916;6.542;2023-05-29T02:34:32;14.45;;;3.78;;
57107;SDS011;42987;52.916;6.542;2023-05-29T02:36:58;14.75;;;3.95;;
57107;SDS011;42987;52.916;6.542;2023-05-29T02:39:27;16.42;;;4.03;;
57107;SDS011;42987;52.916;6.542;2023-05-29T02:41:53;17.45;;;3.78;;
57107;SDS011;42987;52.916;6.542;2023-05-29T02:44:20;17.10;;;3.97;;
57107;SDS011;42987;52.916;6.542;2023-05-29T02:46:46;13.95;;;3.50;;
57107;SDS011;42987;52.916;6.542;2023-05-29T02:49:11;19.67;;;4.82;;
57107;SDS011;42987;52.916;6.542;2023-05-29T02:51:37;15.10;;;3.63;;
57107;SDS011;42987;52.916;6.542;2023-05-29T02:54:03;16.48;;;4.07;;
57107;SDS011;42987;52.916;6.542;2023-05-29T02:56:29;13.60;;;3.55;;
57107;SDS011;42987;52.916;6.542;2023-05-29T02:58:55;16.50;;;4.07;;
57107;SDS011;42987;52.916;6.542;2023-05-29T03:01:21;15.63;;;4.00;;
57107;SDS011;42987;52.916;6.542;2023-05-29T03:03:47;15.25;;;3.60;;
57107;SDS011;42987;52.916;6.542;2023-05-29T03:06:13;12.85;;;3.47;;
57107;SDS011;42987;52.916;6.542;2023-05-29T03:08:38;12.80;;;3.25;;
57107;SDS011;42987;52.916;6.542;2023-05-29T03:11:10;21.65;;;4.25;;
57107;SDS011;42987;52.916;6.542;2023-05-29T03:13:37;15.82;;;3.58;;
57107;SDS011;42987;52.916;6.542;2023-05-29T03:16:03;14.15;;;3.50;;
57107;SDS011;42987;52.916;6.542;2023-05-29T03:18:29;17.67;;;3.88;;
57107;SDS011;42987;52.916;6.542;2023-05-29T03:20:55;17.38;;;4.05;;
57107;SDS011;42987;52.916;6.542;2023-05-29T03:23:22;17.63;;;4.07;;
57107;SDS011;42987;52.916;6.542;2023-05-29T03:25:50;13.70;;;4.07;;
57107;SDS011;42987;52.916;6.542;2023-05-29T03:28:19;13.43;;;3.42;;
57107;SDS011;42987;52.916;6.542;2023-05-29T03:30:48;12.32;;;3.80;;
57107;SDS011;42987;52.916;6.542;2023-05-29T03:33:14;17.08;;;4.32;;
57107;SDS011;42987;52.916;6.542;2023-05-29T03:35:40;12.55;;;3.60;;
57107;SDS011;42987;52.916;6.542;2023-05-29T03:38:07;13.63;;;3.92;;
57107;SDS011;42987;52.916;6.542;2023-05-29T03:40:32;14.40;;;3.92;;
57107;SDS011;42987;52.916;6.542;2023-05-29T03:42:58;14.70;;;4.03;;
57107;SDS011;42987;52.916;6.542;2023-05-29T03:45:24;14.05;;;3.85;;
57107;SDS011;42987;52.916;6.542;2023-05-29T03:47:50;12.68;;;3.50;;
57107;SDS011;42987;52.916;6.542;2023-05-29T03:50:16;13.20;;;3.83;;
57107;SDS011;42987;52.916;6.542;2023-05-29T03:52:42;15.57;;;3.30;;
57107;SDS011;42987;52.916;6.542;2023-05-29T03:55:08;18.67;;;5.03;;
57107;SDS011;42987;52.916;6.542;2023-05-29T03:57:38;16.48;;;4.32;;
57107;SDS011;42987;52.916;6.542;2023-05-29T04:00:10;12.95;;;3.65;;
57107;SDS011;42987;52.916;6.542;2023-05-29T04:02:40;16.23;;;3.85;;
57107;SDS011;42987;52.916;6.542;2023-05-29T04:05:09;18.25;;;4.22;;
57107;SDS011;42987;52.916;6.542;2023-05-29T04:07:35;13.43;;;3.80;;
57107;SDS011;42987;52.916;6.542;2023-05-29T04:10:04;22.10;;;4.38;;
57107;SDS011;42987;52.916;6.542;2023-05-29T04:12:31;17.25;;;3.95;;
57107;SDS011;42987;52.916;6.542;2023-05-29T04:14:58;16.30;;;4.30;;
57107;SDS011;42987;52.916;6.542;2023-05-29T04:17:24;12.77;;;3.83;;
57107;SDS011;42987;52.916;6.542;2023-05-29T04:19:50;14.27;;;3.67;;
57107;SDS011;42987;52.916;6.542;2023-05-29T04:22:16;13.45;;;3.67;;
57107;SDS011;42987;52.916;6.542;2023-05-29T04:24:42;21.17;;;4.72;;
57107;SDS011;42987;52.916;6.542;2023-05-29T04:27:08;13.13;;;3.20;;
57107;SDS011;42987;52.916;6.542;2023-05-29T04:29:41;14.75;;;3.58;;
57107;SDS011;42987;52.916;6.542;2023-05-29T04:32:13;14.23;;;4.10;;
57107;SDS011;42987;52.916;6.542;2023-05-29T04:34:39;16.33;;;4.10;;
57107;SDS011;42987;52.916;6.542;2023-05-29T04:37:05;12.82;;;3.45;;
57107;SDS011;42987;52.916;6.542;2023-05-29T04:39:31;15.45;;;4.25;;
57107;SDS011;42987;52.916;6.542;2023-05-29T04:41:57;12.15;;;3.28;;
57107;SDS011;42987;52.916;6.542;2023-05-29T04:44:26;12.63;;;3.78;;
57107;SDS011;42987;52.916;6.542;2023-05-29T04:46:52;13.07;;;3.58;;
57107;SDS011;42987;52.916;6.542;2023-05-29T04:49:18;15.02;;;4.00;;
57107;SDS011;42987;52.916;6.542;2023-05-29T04:51:45;14.85;;;3.80;;
57107;SDS011;42987;52.916;6.542;2023-05-29T04:54:11;14.88;;;4.03;;
57107;SDS011;42987;52.916;6.542;2023-05-29T04:56:37;13.95;;;3.28;;
57107;SDS011;42987;52.916;6.542;2023-05-29T04:59:07;14.63;;;3.90;;
57107;SDS011;42987;52.916;6.542;2023-05-29T05:01:34;12.85;;;3.85;;
57107;SDS011;42987;52.916;6.542;2023-05-29T05:04:00;14.57;;;4.03;;
57107;SDS011;42987;52.916;6.542;2023-05-29T05:06:26;12.52;;;3.53;;
57107;SDS011;42987;52.916;6.542;2023-05-29T05:08:52;14.30;;;3.65;;
57107;SDS011;42987;52.916;6.542;2023-05-29T05:11:18;15.38;;;4.07;;
57107;SDS011;42987;52.916;6.542;2023-05-29T05:13:46;18.08;;;4.45;;
57107;SDS011;42987;52.916;6.542;2023-05-29T05:16:11;14.30;;;3.85;;
57107;SDS011;42987;52.916;6.542;2023-05-29T05:18:38;16.08;;;4.38;;
57107;SDS011;42987;52.916;6.542;2023-05-29T05:21:04;13.75;;;3.50;;
57107;SDS011;42987;52.916;6.542;2023-05-29T05:23:31;16.70;;;4.05;;
57107;SDS011;42987;52.916;6.542;2023-05-29T05:25:57;15.68;;;3.70;;
57107;SDS011;42987;52.916;6.542;2023-05-29T05:28:23;15.63;;;3.80;;
57107;SDS011;42987;52.916;6.542;2023-05-29T05:30:50;15.35;;;3.65;;
57107;SDS011;42987;52.916;6.542;2023-05-29T05:33:16;14.13;;;4.05;;
57107;SDS011;42987;52.916;6.542;2023-05-29T05:35:42;16.75;;;3.85;;
57107;SDS011;42987;52.916;6.542;2023-05-29T05:38:13;11.18;;;3.20;;
57107;SDS011;42987;52.916;6.542;2023-05-29T05:40:39;12.63;;;3.80;;
57107;SDS011;42987;52.916;6.542;2023-05-29T05:43:05;14.88;;;3.78;;
57107;SDS011;42987;52.916;6.542;2023-05-29T05:45:31;15.55;;;3.95;;
57107;SDS011;42987;52.916;6.542;2023-05-29T05:47:57;12.75;;;3.30;;
57107;SDS011;42987;52.916;6.542;2023-05-29T05:50:23;14.32;;;4.20;;
57107;SDS011;42987;52.916;6.542;2023-05-29T05:52:53;16.23;;;3.75;;
57107;SDS011;42987;52.916;6.542;2023-05-29T05:55:19;16.52;;;4.30;;
57107;SDS011;42987;52.916;6.542;2023-05-29T05:57:44;15.05;;;3.65;;
57107;SDS011;42987;52.916;6.542;2023-05-29T06:00:10;13.43;;;3.53;;
57107;SDS011;42987;52.916;6.542;2023-05-29T06:02:37;17.23;;;4.68;;
57107;SDS011;42987;52.916;6.542;2023-05-29T06:05:06;15.68;;;4.03;;
57107;SDS011;42987;52.916;6.542;2023-05-29T06:07:32;18.13;;;4.30;;
57107;SDS011;42987;52.916;6.542;2023-05-29T06:09:58;15.88;;;3.97;;
57107;SDS011;42987;52.916;6.542;2023-05-29T06:12:28;17.42;;;4.47;;
57107;SDS011;42987;52.916;6.542;2023-05-29T06:14:54;14.38;;;3.30;;
57107;SDS011;42987;52.916;6.542;2023-05-29T06:17:20;14.38;;;4.57;;
57107;SDS011;42987;52.916;6.542;2023-05-29T06:19:46;15.35;;;4.38;;
57107;SDS011;42987;52.916;6.542;2023-05-29T06:22:13;18.27;;;4.25;;
57107;SDS011;42987;52.916;6.542;2023-05-29T06:24:40;14.07;;;4.13;;
57107;SDS011;42987;52.916;6.542;2023-05-29T06:27:06;16.27;;;4.18;;
57107;SDS011;42987;52.916;6.542;2023-05-29T06:29:32;12.57;;;3.67;;
57107;SDS011;42987;52.916;6.542;2023-05-29T06:31:58;15.73;;;4.88;;
57107;SDS011;42987;52.916;6.542;2023-05-29T06:34:25;19.45;;;4.50;;
57107;SDS011;42987;52.916;6.542;2023-05-29T06:36:52;16.08;;;4.53;;
57107;SDS011;42987;52.916;6.542;2023-05-29T06:39:18;14.25;;;4.07;;
57107;SDS011;42987;52.916;6.542;2023-05-29T06:41:45;15.27;;;4.18;;
57107;SDS011;42987;52.916;6.542;2023-05-29T06:44:11;14.80;;;3.92;;
57107;SDS011;42987;52.916;6.542;2023-05-29T06:46:37;16.50;;;4.32;;
57107;SDS011;42987;52.916;6.542;2023-05-29T06:49:04;15.88;;;4.25;;
57107;SDS011;42987;52.916;6.542;2023-05-29T06:51:30;15.23;;;4.55;;
57107;SDS011;42987;52.916;6.542;2023-05-29T06:53:57;12.95;;;4.03;;
57107;SDS011;42987;52.916;6.542;2023-05-29T06:56:23;15.45;;;4.43;;
57107;SDS011;42987;52.916;6.542;2023-05-29T06:58:49;14.18;;;4.03;;
57107;SDS011;42987;52.916;6.542;2023-05-29T07:01:15;16.23;;;4.25;;
57107;SDS011;42987;52.916;6.542;2023-05-29T07:03:42;17.00;;;4.28;;
57107;SDS011;42987;52.916;6.542;2023-05-29T07:06:08;16.23;;;4.53;;
57107;SDS011;42987;52.916;6.542;2023-05-29T07:08:34;18.17;;;5.32;;
57107;SDS011;42987;52.916;6.542;2023-05-29T07:11:00;14.73;;;4.38;;
57107;SDS011;42987;52.916;6.542;2023-05-29T07:13:27;20.52;;;5.70;;
57107;SDS011;42987;52.916;6.542;2023-05-29T07:15:52;15.65;;;4.30;;
57107;SDS011;42987;52.916;6.542;2023-05-29T07:18:18;16.42;;;4.50;;
57107;SDS011;42987;52.916;6.542;2023-05-29T07:20:44;15.57;;;4.70;;
57107;SDS011;42987;52.916;6.542;2023-05-29T07:23:10;17.42;;;4.65;;
57107;SDS011;42987;52.916;6.542;2023-05-29T07:25:36;14.68;;;4.35;;
57107;SDS011;42987;52.916;6.542;2023-05-29T07:28:02;14.60;;;4.60;;
57107;SDS011;42987;52.916;6.542;2023-05-29T07:30:27;15.07;;;4.10;;
57107;SDS011;42987;52.916;6.542;2023-05-29T07:32:53;14.50;;;3.90;;
57107;SDS011;42987;52.916;6.542;2023-05-29T07:35:19;17.45;;;4.50;;
57107;SDS011;42987;52.916;6.542;2023-05-29T07:37:45;17.27;;;4.72;;
57107;SDS011;42987;52.916;6.542;2023-05-29T07:40:13;16.08;;;4.25;;
57107;SDS011;42987;52.916;6.542;2023-05-29T07:42:39;15.55;;;4.38;;
57107;SDS011;42987;52.916;6.542;2023-05-29T07:45:08;15.45;;;4.72;;
57107;SDS011;42987;52.916;6.542;2023-05-29T07:47:34;19.02;;;4.68;;
57107;SDS011;42987;52.916;6.542;2023-05-29T07:49:59;18.02;;;4.47;;
57107;SDS011;42987;52.916;6.542;2023-05-29T07:52:25;14.95;;;4.25;;
57107;SDS011;42987;52.916;6.542;2023-05-29T07:54:52;11.18;;;3.83;;
57107;SDS011;42987;52.916;6.542;2023-05-29T07:57:18;18.55;;;5.55;;
57107;SDS011;42987;52.916;6.542;2023-05-29T07:59:43;14.65;;;4.78;;
57107;SDS011;42987;52.916;6.542;2023-05-29T08:02:09;20.75;;;4.97;;
57107;SDS011;42987;52.916;6.542;2023-05-29T08:04:35;14.27;;;4.50;;
57107;SDS011;42987;52.916;6.542;2023-05-29T08:07:02;18.13;;;4.72;;
57107;SDS011;42987;52.916;6.542;2023-05-29T08:09:31;18.42;;;4.47;;
57107;SDS011;42987;52.916;6.542;2023-05-29T08:11:57;19.60;;;4.60;;
57107;SDS011;42987;52.916;6.542;2023-05-29T08:14:26;20.10;;;4.35;;
57107;SDS011;42987;52.916;6.542;2023-05-29T08:16:51;16.33;;;4.53;;
57107;SDS011;42987;52.916;6.542;2023-05-29T08:19:20;16.20;;;4.28;;
57107;SDS011;42987;52.916;6.542;2023-05-29T08:21:47;15.85;;;4.32;;
57107;SDS011;42987;52.916;6.542;2023-05-29T08:24:12;14.15;;;3.90;;
57107;SDS011;42987;52.916;6.542;2023-05-29T08:26:39;18.80;;;5.03;;
57107;SDS011;42987;52.916;6.542;2023-05-29T08:29:05;14.98;;;4.30;;
57107;SDS011;42987;52.916;6.542;2023-05-29T08:31:30;16.77;;;4.35;;
57107;SDS011;42987;52.916;6.542;2023-05-29T08:33:56;14.98;;;4.50;;
57107;SDS011;42987;52.916;6.542;2023-05-29T08:36:24;18.42;;;4.80;;
57107;SDS011;42987;52.916;6.542;2023-05-29T08:38:50;14.55;;;4.18;;
57107;SDS011;42987;52.916;6.542;2023-05-29T08:41:17;15.57;;;4.75;;
57107;SDS011;42987;52.916;6.542;2023-05-29T08:43:48;13.13;;;3.83;;
57107;SDS011;42987;52.916;6.542;2023-05-29T08:46:15;19.58;;;4.80;;
57107;SDS011;42987;52.916;6.542;2023-05-29T08:48:48;19.35;;;4.72;;
57107;SDS011;42987;52.916;6.542;2023-05-29T08:51:20;19.80;;;4.70;;
57107;SDS011;42987;52.916;6.542;2023-05-29T08:53:57;18.95;;;5.22;;
57107;SDS011;42987;52.916;6.542;2023-05-29T08:56:23;15.05;;;4.05;;
57107;SDS011;42987;52.916;6.542;2023-05-29T08:58:49;14.13;;;4.90;;
57107;SDS011;42987;52.916;6.542;2023-05-29T09:01:16;17.35;;;3.83;;
57107;SDS011;42987;52.916;6.542;2023-05-29T09:03:42;16.20;;;4.10;;
57107;SDS011;42987;52.916;6.542;2023-05-29T09:06:08;16.13;;;4.68;;
57107;SDS011;42987;52.916;6.542;2023-05-29T09:08:35;20.90;;;5.35;;
57107;SDS011;42987;52.916;6.542;2023-05-29T09:11:02;13.48;;;4.35;;
57107;SDS011;42987;52.916;6.542;2023-05-29T09:13:31;17.00;;;5.22;;
57107;SDS011;42987;52.916;6.542;2023-05-29T09:16:00;15.18;;;4.72;;
57107;SDS011;42987;52.916;6.542;2023-05-29T09:18:31;14.25;;;4.00;;
57107;SDS011;42987;52.916;6.542;2023-05-29T09:20:57;18.40;;;5.22;;
57107;SDS011;42987;52.916;6.542;2023-05-29T09:23:25;12.95;;;4.15;;
57107;SDS011;42987;52.916;6.542;2023-05-29T09:25:54;14.73;;;4.25;;
57107;SDS011;42987;52.916;6.542;2023-05-29T09:28:21;14.85;;;4.38;;
57107;SDS011;42987;52.916;6.542;2023-05-29T09:30:48;16.25;;;4.25;;
57107;SDS011;42987;52.916;6.542;2023-05-29T09:33:15;17.42;;;4.05;;
57107;SDS011;42987;52.916;6.542;2023-05-29T09:35:42;19.60;;;4.85;;
57107;SDS011;42987;52.916;6.542;2023-05-29T09:38:14;18.10;;;4.47;;
57107;SDS011;42987;52.916;6.542;2023-05-29T09:40:44;15.85;;;4.82;;
57107;SDS011;42987;52.916;6.542;2023-05-29T09:45:45;18.30;;;4.95;;
57107;SDS011;42987;52.916;6.542;2023-05-29T09:48:13;15.52;;;4.10;;
57107;SDS011;42987;52.916;6.542;2023-05-29T09:50:40;13.40;;;4.13;;
57107;SDS011;42987;52.916;6.542;2023-05-29T09:55:52;20.45;;;4.90;;
57107;SDS011;42987;52.916;6.542;2023-05-29T09:58:22;18.63;;;4.43;;
57107;SDS011;42987;52.916;6.542;2023-05-29T10:00:50;14.73;;;4.00;;
57107;SDS011;42987;52.916;6.542;2023-05-29T10:03:19;11.98;;;4.15;;
57107;SDS011;42987;52.916;6.542;2023-05-29T10:05:49;13.55;;;3.78;;
57107;SDS011;42987;52.916;6.542;2023-05-29T10:08:19;13.23;;;3.95;;
57107;SDS011;42987;52.916;6.542;2023-05-29T10:10:47;16.23;;;5.65;;
57107;SDS011;42987;52.916;6.542;2023-05-29T10:13:19;17.75;;;5.15;;
57107;SDS011;42987;52.916;6.542;2023-05-29T10:15:48;12.50;;;3.72;;
57107;SDS011;42987;52.916;6.542;2023-05-29T10:18:21;14.25;;;4.10;;
57107;SDS011;42987;52.916;6.542;2023-05-29T10:40:46;14.15;;;4.30;;
57107;SDS011;42987;52.916;6.542;2023-05-29T10:46:09;14.10;;;3.92;;
57107;SDS011;42987;52.916;6.542;2023-05-29T10:48:38;13.68;;;4.35;;
57107;SDS011;42987;52.916;6.542;2023-05-29T10:51:08;20.23;;;4.63;;
57107;SDS011;42987;52.916;6.542;2023-05-29T10:53:49;16.23;;;4.13;;
57107;SDS011;42987;52.916;6.542;2023-05-29T10:56:21;14.05;;;4.70;;
57107;SDS011;42987;52.916;6.542;2023-05-29T10:58:55;12.93;;;3.78;;
57107;SDS011;42987;52.916;6.542;2023-05-29T11:01:23;20.13;;;4.32;;
57107;SDS011;42987;52.916;6.542;2023-05-29T11:03:53;14.82;;;4.40;;
57107;SDS011;42987;52.916;6.542;2023-05-29T11:06:46;15.95;;;4.60;;
57107;SDS011;42987;52.916;6.542;2023-05-29T11:15:05;16.58;;;4.63;;
57107;SDS011;42987;52.916;6.542;2023-05-29T11:20:28;14.00;;;4.30;;
57107;SDS011;42987;52.916;6.542;2023-05-29T11:23:01;13.50;;;4.07;;
57107;SDS011;42987;52.916;6.542;2023-05-29T11:25:29;11.88;;;3.30;;
57107;SDS011;42987;52.916;6.542;2023-05-29T11:28:02;15.90;;;4.03;;
57107;SDS011;42987;52.916;6.542;2023-05-29T11:30:39;14.98;;;4.55;;
57107;SDS011;42987;52.916;6.542;2023-05-29T11:33:11;16.63;;;3.95;;
57107;SDS011;42987;52.916;6.542;2023-05-29T11:35:44;11.02;;;3.88;;
57107;SDS011;42987;52.916;6.542;2023-05-29T11:38:11;13.45;;;3.90;;
57107;SDS011;42987;52.916;6.542;2023-05-29T11:40:37;15.77;;;3.53;;
57107;SDS011;42987;52.916;6.542;2023-05-29T11:43:03;12.98;;;4.07;;
57107;SDS011;42987;52.916;6.542;2023-05-29T11:45:31;15.80;;;4.40;;
57107;SDS011;42987;52.916;6.542;2023-05-29T11:48:02;13.48;;;3.92;;
57107;SDS011;42987;52.916;6.542;2023-05-29T11:50:29;16.48;;;4.53;;
57107;SDS011;42987;52.916;6.542;2023-05-29T11:52:56;15.38;;;4.30;;
57107;SDS011;42987;52.916;6.542;2023-05-29T11:55:23;13.38;;;4.00;;
57107;SDS011;42987;52.916;6.542;2023-05-29T11:57:50;16.42;;;4.35;;
57107;SDS011;42987;52.916;6.542;2023-05-29T12:00:20;12.77;;;3.90;;
57107;SDS011;42987;52.916;6.542;2023-05-29T12:02:47;14.10;;;3.72;;
57107;SDS011;42987;52.916;6.542;2023-05-29T12:05:15;11.32;;;3.30;;
57107;SDS011;42987;52.916;6.542;2023-05-29T12:07:46;14.75;;;4.03;;
57107;SDS011;42987;52.916;6.542;2023-05-29T12:10:17;15.20;;;4.53;;
57107;SDS011;42987;52.916;6.542;2023-05-29T12:13:02;12.00;;;4.00;;
57107;SDS011;42987;52.916;6.542;2023-05-29T12:15:28;16.70;;;4.38;;
57107;SDS011;42987;52.916;6.542;2023-05-29T12:17:57;14.23;;;3.83;;
57107;SDS011;42987;52.916;6.542;2023-05-29T12:20:23;14.32;;;3.67;;
57107;SDS011;42987;52.916;6.542;2023-05-29T12:22:52;10.25;;;3.65;;
57107;SDS011;42987;52.916;6.542;2023-05-29T12:25:21;16.95;;;4.80;;
57107;SDS011;42987;52.916;6.542;2023-05-29T12:27:48;12.75;;;3.78;;
57107;SDS011;42987;52.916;6.542;2023-05-29T12:32:44;13.98;;;3.80;;
57107;SDS011;42987;52.916;6.542;2023-05-29T12:35:12;14.60;;;3.90;;
57107;SDS011;42987;52.916;6.542;2023-05-29T12:43:05;12.25;;;3.65;;
57107;SDS011;42987;52.916;6.542;2023-05-29T12:45:34;11.48;;;3.45;;
57107;SDS011;42987;52.916;6.542;2023-05-29T12:48:06;12.52;;;3.90;;
57107;SDS011;42987;52.916;6.542;2023-05-29T12:50:40;13.50;;;3.80;;
57107;SDS011;42987;52.916;6.542;2023-05-29T12:53:12;17.58;;;4.40;;
57107;SDS011;42987;52.916;6.542;2023-05-29T12:55:40;14.65;;;3.35;;
57107;SDS011;42987;52.916;6.542;2023-05-29T12:58:07;13.73;;;3.95;;
57107;SDS011;42987;52.916;6.542;2023-05-29T13:00:41;11.55;;;3.45;;
57107;SDS011;42987;52.916;6.542;2023-05-29T13:03:09;13.27;;;3.50;;
57107;SDS011;42987;52.916;6.542;2023-05-29T13:05:36;11.50;;;3.10;;
57107;SDS011;42987;52.916;6.542;2023-05-29T13:08:02;10.90;;;3.17;;
57107;SDS011;42987;52.916;6.542;2023-05-29T13:10:30;13.55;;;3.40;;
57107;SDS011;42987;52.916;6.542;2023-05-29T13:12:56;10.55;;;3.40;;
57107;SDS011;42987;52.916;6.542;2023-05-29T13:15:24;11.18;;;2.72;;
57107;SDS011;42987;52.916;6.542;2023-05-29T13:17:51;11.10;;;3.78;;
57107;SDS011;42987;52.916;6.542;2023-05-29T13:20:18;12.93;;;3.58;;
57107;SDS011;42987;52.916;6.542;2023-05-29T13:22:44;12.18;;;3.80;;
57107;SDS011;42987;52.916;6.542;2023-05-29T13:25:12;11.85;;;3.80;;
57107;SDS011;42987;52.916;6.542;2023-05-29T13:27:40;14.27;;;3.47;;
57107;SDS011;42987;52.916;6.542;2023-05-29T13:30:10;14.65;;;3.58;;
57107;SDS011;42987;52.916;6.542;2023-05-29T13:32:37;13.80;;;3.30;;
57107;SDS011;42987;52.916;6.542;2023-05-29T13:35:03;10.75;;;2.78;;
57107;SDS011;42987;52.916;6.542;2023-05-29T13:37:30;9.38;;;2.97;;
57107;SDS011;42987;52.916;6.542;2023-05-29T13:39:56;10.43;;;3.20;;
57107;SDS011;42987;52.916;6.542;2023-05-29T13:42:22;11.18;;;2.88;;
57107;SDS011;42987;52.916;6.542;2023-05-29T13:44:48;10.30;;;3.03;;
57107;SDS011;42987;52.916;6.542;2023-05-29T13:47:15;11.30;;;3.50;;
57107;SDS011;42987;52.916;6.542;2023-05-29T13:49:41;9.85;;;2.95;;
57107;SDS011;42987;52.916;6.542;2023-05-29T13:52:07;14.57;;;3.70;;
57107;SDS011;42987;52.916;6.542;2023-05-29T13:54:33;9.85;;;2.80;;
57107;SDS011;42987;52.916;6.542;2023-05-29T13:57:02;11.25;;;2.78;;
57107;SDS011;42987;52.916;6.542;2023-05-29T13:59:33;9.93;;;2.38;;
57107;SDS011;42987;52.916;6.542;2023-05-29T14:01:59;10.82;;;3.08;;
57107;SDS011;42987;52.916;6.542;2023-05-29T14:04:26;8.10;;;2.33;;
57107;SDS011;42987;52.916;6.542;2023-05-29T14:06:53;11.90;;;3.15;;
57107;SDS011;42987;52.916;6.542;2023-05-29T14:09:21;7.95;;;2.75;;
57107;SDS011;42987;52.916;6.542;2023-05-29T14:11:55;14.68;;;2.67;;
57107;SDS011;42987;52.916;6.542;2023-05-29T14:14:22;9.68;;;2.63;;
57107;SDS011;42987;52.916;6.542;2023-05-29T14:16:49;12.02;;;3.35;;
57107;SDS011;42987;52.916;6.542;2023-05-29T14:19:15;13.35;;;3.30;;
57107;SDS011;42987;52.916;6.542;2023-05-29T14:21:41;10.60;;;2.78;;
57107;SDS011;42987;52.916;6.542;2023-05-29T14:24:07;11.00;;;3.03;;
57107;SDS011;42987;52.916;6.542;2023-05-29T14:26:33;11.48;;;2.75;;
57107;SDS011;42987;52.916;6.542;2023-05-29T14:28:58;12.95;;;2.92;;
57107;SDS011;42987;52.916;6.542;2023-05-29T14:31:31;13.60;;;3.47;;
57107;SDS011;42987;52.916;6.542;2023-05-29T14:33:56;9.07;;;2.80;;
57107;SDS011;42987;52.916;6.542;2023-05-29T14:36:23;9.73;;;2.70;;
57107;SDS011;42987;52.916;6.542;2023-05-29T14:38:49;8.73;;;2.33;;
57107;SDS011;42987;52.916;6.542;2023-05-29T14:41:15;9.60;;;2.78;;
57107;SDS011;42987;52.916;6.542;2023-05-29T14:43:43;10.35;;;2.90;;
57107;SDS011;42987;52.916;6.542;2023-05-29T14:46:10;9.95;;;2.83;;
57107;SDS011;42987;52.916;6.542;2023-05-29T14:48:36;11.73;;;2.90;;
57107;SDS011;42987;52.916;6.542;2023-05-29T14:51:02;10.10;;;2.65;;
57107;SDS011;42987;52.916;6.542;2023-05-29T14:53:28;10.10;;;2.90;;
57107;SDS011;42987;52.916;6.542;2023-05-29T14:55:56;9.98;;;2.80;;
57107;SDS011;42987;52.916;6.542;2023-05-29T14:58:22;8.70;;;2.95;;
57107;SDS011;42987;52.916;6.542;2023-05-29T15:00:48;11.65;;;3.20;;
57107;SDS011;42987;52.916;6.542;2023-05-29T15:03:14;11.13;;;2.80;;
57107;SDS011;42987;52.916;6.542;2023-05-29T15:05:39;8.43;;;2.30;;
57107;SDS011;42987;52.916;6.542;2023-05-29T15:08:05;8.73;;;2.75;;
57107;SDS011;42987;52.916;6.542;2023-05-29T15:10:31;8.82;;;2.50;;
57107;SDS011;42987;52.916;6.542;2023-05-29T15:12:57;9.68;;;2.83;;
57107;SDS011;42987;52.916;6.542;2023-05-29T15:15:27;8.43;;;2.85;;
57107;SDS011;42987;52.916;6.542;2023-05-29T15:17:53;10.48;;;2.55;;
57107;SDS011;42987;52.916;6.542;2023-05-29T15:20:22;12.77;;;2.85;;
57107;SDS011;42987;52.916;6.542;2023-05-29T15:22:49;11.00;;;2.80;;
57107;SDS011;42987;52.916;6.542;2023-05-29T15:25:16;7.53;;;2.38;;
57107;SDS011;42987;52.916;6.542;2023-05-29T15:27:43;6.78;;;2.47;;
57107;SDS011;42987;52.916;6.542;2023-05-29T15:30:10;7.65;;;2.35;;
57107;SDS011;42987;52.916;6.542;2023-05-29T15:32:37;6.57;;;2.15;;